sensor_id;sensor_type;location;lat;lon;timestamp;P1;durP1;ratioP1;P2;durP2;ratioP2
11228;SDS011;5671;47.936;8.716;2023-07-09T00:00:16;6.00;;;3.90;;
11228;SDS011;5671;47.936;8.716;2023-07-09T00:02:44;4.70;;;3.77;;
11228;SDS011;5671;47.936;8.716;2023-07-09T00:05:15;3.33;;;3.10;;
11228;SDS011;5671;47.936;8.716;2023-07-09T00:07:43;4.77;;;3.53;;
11228;SDS011;5671;47.936;8.716;2023-07-09T00:10:15;5.10;;;3.57;;
11228;SDS011;5671;47.936;8.716;2023-07-09T00:12:43;7.53;;;3.50;;
11228;SDS011;5671;47.936;8.716;2023-07-09T00:15:10;4.60;;;3.33;;
11228;SDS011;5671;47.936;8.716;2023-07-09T00:17:39;3.93;;;3.13;;
11228;SDS011;5671;47.936;8.716;2023-07-09T00:20:07;8.33;;;3.53;;
11228;SDS011;5671;47.936;8.716;2023-07-09T00:22:39;7.37;;;3.40;;
11228;SDS011;5671;47.936;8.716;2023-07-09T00:25:07;6.27;;;3.73;;
11228;SDS011;5671;47.936;8.716;2023-07-09T00:27:38;4.90;;;3.50;;
11228;SDS011;5671;47.936;8.716;2023-07-09T00:30:10;5.40;;;3.80;;
11228;SDS011;5671;47.936;8.716;2023-07-09T00:32:43;4.77;;;3.40;;
11228;SDS011;5671;47.936;8.716;2023-07-09T00:35:10;5.07;;;3.20;;
11228;SDS011;5671;47.936;8.716;2023-07-09T00:37:40;6.13;;;4.10;;
11228;SDS011;5671;47.936;8.716;2023-07-09T00:40:10;6.43;;;3.67;;
11228;SDS011;5671;47.936;8.716;2023-07-09T00:42:42;4.53;;;3.73;;
11228;SDS011;5671;47.936;8.716;2023-07-09T00:45:16;4.93;;;3.47;;
11228;SDS011;5671;47.936;8.716;2023-07-09T00:47:47;4.50;;;3.37;;
11228;SDS011;5671;47.936;8.716;2023-07-09T00:50:19;5.03;;;4.07;;
11228;SDS011;5671;47.936;8.716;2023-07-09T00:52:54;3.80;;;3.40;;
11228;SDS011;5671;47.936;8.716;2023-07-09T00:55:24;6.10;;;3.97;;
11228;SDS011;5671;47.936;8.716;2023-07-09T00:57:56;5.70;;;3.47;;
11228;SDS011;5671;47.936;8.716;2023-07-09T01:00:28;6.40;;;3.73;;
11228;SDS011;5671;47.936;8.716;2023-07-09T01:03:08;9.20;;;4.03;;
11228;SDS011;5671;47.936;8.716;2023-07-09T01:05:37;5.30;;;3.80;;
11228;SDS011;5671;47.936;8.716;2023-07-09T01:08:05;4.93;;;3.67;;
11228;SDS011;5671;47.936;8.716;2023-07-09T01:10:34;4.60;;;3.90;;
11228;SDS011;5671;47.936;8.716;2023-07-09T01:13:01;5.17;;;3.60;;
11228;SDS011;5671;47.936;8.716;2023-07-09T01:15:28;4.30;;;3.90;;
11228;SDS011;5671;47.936;8.716;2023-07-09T01:17:55;7.17;;;3.93;;
11228;SDS011;5671;47.936;8.716;2023-07-09T01:20:23;6.30;;;3.57;;
11228;SDS011;5671;47.936;8.716;2023-07-09T01:22:53;8.43;;;3.77;;
11228;SDS011;5671;47.936;8.716;2023-07-09T01:25:22;4.27;;;3.50;;
11228;SDS011;5671;47.936;8.716;2023-07-09T01:27:50;3.60;;;3.03;;
11228;SDS011;5671;47.936;8.716;2023-07-09T01:30:18;4.07;;;3.60;;
11228;SDS011;5671;47.936;8.716;2023-07-09T01:32:47;4.53;;;3.63;;
11228;SDS011;5671;47.936;8.716;2023-07-09T01:35:15;6.77;;;4.23;;
11228;SDS011;5671;47.936;8.716;2023-07-09T01:37:43;5.83;;;3.73;;
11228;SDS011;5671;47.936;8.716;2023-07-09T01:40:14;4.27;;;3.80;;
11228;SDS011;5671;47.936;8.716;2023-07-09T01:42:42;5.30;;;3.67;;
11228;SDS011;5671;47.936;8.716;2023-07-09T01:45:10;4.10;;;3.10;;
11228;SDS011;5671;47.936;8.716;2023-07-09T01:47:37;4.27;;;3.47;;
11228;SDS011;5671;47.936;8.716;2023-07-09T01:50:05;4.73;;;3.53;;
11228;SDS011;5671;47.936;8.716;2023-07-09T01:52:34;6.93;;;3.50;;
11228;SDS011;5671;47.936;8.716;2023-07-09T01:55:04;5.93;;;3.63;;
11228;SDS011;5671;47.936;8.716;2023-07-09T01:57:33;6.07;;;3.60;;
11228;SDS011;5671;47.936;8.716;2023-07-09T02:00:00;4.03;;;3.60;;
11228;SDS011;5671;47.936;8.716;2023-07-09T02:02:34;4.77;;;2.90;;
11228;SDS011;5671;47.936;8.716;2023-07-09T02:05:01;5.27;;;3.73;;
11228;SDS011;5671;47.936;8.716;2023-07-09T02:07:28;4.73;;;3.60;;
11228;SDS011;5671;47.936;8.716;2023-07-09T02:09:55;4.63;;;3.20;;
11228;SDS011;5671;47.936;8.716;2023-07-09T02:12:23;4.77;;;3.47;;
11228;SDS011;5671;47.936;8.716;2023-07-09T02:14:51;3.73;;;3.20;;
11228;SDS011;5671;47.936;8.716;2023-07-09T02:17:18;4.10;;;3.57;;
11228;SDS011;5671;47.936;8.716;2023-07-09T02:19:45;5.50;;;3.57;;
11228;SDS011;5671;47.936;8.716;2023-07-09T02:22:11;3.73;;;3.20;;
11228;SDS011;5671;47.936;8.716;2023-07-09T02:24:38;3.60;;;2.97;;
11228;SDS011;5671;47.936;8.716;2023-07-09T02:27:07;5.23;;;3.50;;
11228;SDS011;5671;47.936;8.716;2023-07-09T02:29:36;6.53;;;3.50;;
11228;SDS011;5671;47.936;8.716;2023-07-09T02:32:05;6.30;;;3.30;;
11228;SDS011;5671;47.936;8.716;2023-07-09T02:34:33;4.60;;;3.43;;
11228;SDS011;5671;47.936;8.716;2023-07-09T02:37:00;3.57;;;3.17;;
11228;SDS011;5671;47.936;8.716;2023-07-09T02:39:27;4.23;;;3.33;;
11228;SDS011;5671;47.936;8.716;2023-07-09T02:41:54;5.47;;;3.43;;
11228;SDS011;5671;47.936;8.716;2023-07-09T02:44:21;4.87;;;3.67;;
11228;SDS011;5671;47.936;8.716;2023-07-09T02:46:48;5.40;;;3.43;;
11228;SDS011;5671;47.936;8.716;2023-07-09T02:49:16;4.10;;;3.70;;
11228;SDS011;5671;47.936;8.716;2023-07-09T02:51:44;4.60;;;3.13;;
11228;SDS011;5671;47.936;8.716;2023-07-09T02:54:10;4.33;;;3.70;;
11228;SDS011;5671;47.936;8.716;2023-07-09T02:56:37;4.87;;;3.10;;
11228;SDS011;5671;47.936;8.716;2023-07-09T02:59:04;4.00;;;3.37;;
11228;SDS011;5671;47.936;8.716;2023-07-09T03:01:31;4.73;;;3.23;;
11228;SDS011;5671;47.936;8.716;2023-07-09T03:03:59;3.87;;;3.50;;
11228;SDS011;5671;47.936;8.716;2023-07-09T03:06:28;3.50;;;3.07;;
11228;SDS011;5671;47.936;8.716;2023-07-09T03:08:57;4.33;;;3.50;;
11228;SDS011;5671;47.936;8.716;2023-07-09T03:11:25;4.97;;;3.17;;
11228;SDS011;5671;47.936;8.716;2023-07-09T03:13:51;3.60;;;3.30;;
11228;SDS011;5671;47.936;8.716;2023-07-09T03:16:19;3.40;;;3.10;;
11228;SDS011;5671;47.936;8.716;2023-07-09T03:18:46;6.60;;;3.47;;
11228;SDS011;5671;47.936;8.716;2023-07-09T03:21:12;3.60;;;2.90;;
11228;SDS011;5671;47.936;8.716;2023-07-09T03:23:41;4.80;;;3.43;;
11228;SDS011;5671;47.936;8.716;2023-07-09T03:26:07;4.93;;;3.60;;
11228;SDS011;5671;47.936;8.716;2023-07-09T03:28:34;6.37;;;3.87;;
11228;SDS011;5671;47.936;8.716;2023-07-09T03:31:01;4.03;;;3.60;;
11228;SDS011;5671;47.936;8.716;2023-07-09T03:33:28;5.20;;;3.40;;
11228;SDS011;5671;47.936;8.716;2023-07-09T03:35:55;4.80;;;3.13;;
11228;SDS011;5671;47.936;8.716;2023-07-09T03:38:22;4.03;;;3.63;;
11228;SDS011;5671;47.936;8.716;2023-07-09T03:40:53;4.43;;;3.40;;
11228;SDS011;5671;47.936;8.716;2023-07-09T03:43:20;3.27;;;2.97;;
11228;SDS011;5671;47.936;8.716;2023-07-09T03:45:47;3.73;;;3.23;;
11228;SDS011;5671;47.936;8.716;2023-07-09T03:48:15;4.37;;;3.60;;
11228;SDS011;5671;47.936;8.716;2023-07-09T03:50:44;3.47;;;3.10;;
11228;SDS011;5671;47.936;8.716;2023-07-09T03:53:12;3.60;;;3.13;;
11228;SDS011;5671;47.936;8.716;2023-07-09T03:55:43;5.13;;;3.90;;
11228;SDS011;5671;47.936;8.716;2023-07-09T03:58:13;4.90;;;3.63;;
11228;SDS011;5671;47.936;8.716;2023-07-09T04:00:40;3.47;;;3.17;;
11228;SDS011;5671;47.936;8.716;2023-07-09T04:03:07;6.57;;;3.37;;
11228;SDS011;5671;47.936;8.716;2023-07-09T04:05:35;4.10;;;3.70;;
11228;SDS011;5671;47.936;8.716;2023-07-09T04:08:02;7.20;;;3.37;;
11228;SDS011;5671;47.936;8.716;2023-07-09T04:10:29;5.23;;;3.47;;
11228;SDS011;5671;47.936;8.716;2023-07-09T04:12:56;5.47;;;3.53;;
11228;SDS011;5671;47.936;8.716;2023-07-09T04:15:24;4.23;;;3.13;;
11228;SDS011;5671;47.936;8.716;2023-07-09T04:17:52;6.43;;;3.50;;
11228;SDS011;5671;47.936;8.716;2023-07-09T04:20:18;4.23;;;3.53;;
11228;SDS011;5671;47.936;8.716;2023-07-09T04:22:45;3.40;;;3.10;;
11228;SDS011;5671;47.936;8.716;2023-07-09T04:25:12;3.93;;;3.13;;
11228;SDS011;5671;47.936;8.716;2023-07-09T04:27:39;6.73;;;3.77;;
11228;SDS011;5671;47.936;8.716;2023-07-09T04:30:10;3.57;;;3.27;;
11228;SDS011;5671;47.936;8.716;2023-07-09T04:32:41;5.97;;;3.20;;
11228;SDS011;5671;47.936;8.716;2023-07-09T04:35:09;4.93;;;3.60;;
11228;SDS011;5671;47.936;8.716;2023-07-09T04:37:37;4.93;;;3.43;;
11228;SDS011;5671;47.936;8.716;2023-07-09T04:40:05;4.37;;;3.33;;
11228;SDS011;5671;47.936;8.716;2023-07-09T04:42:35;3.90;;;2.87;;
11228;SDS011;5671;47.936;8.716;2023-07-09T04:45:04;5.17;;;3.13;;
11228;SDS011;5671;47.936;8.716;2023-07-09T04:47:32;4.10;;;3.27;;
11228;SDS011;5671;47.936;8.716;2023-07-09T04:50:00;3.77;;;3.37;;
11228;SDS011;5671;47.936;8.716;2023-07-09T04:52:28;6.67;;;3.67;;
11228;SDS011;5671;47.936;8.716;2023-07-09T04:54:56;4.73;;;3.00;;
11228;SDS011;5671;47.936;8.716;2023-07-09T04:57:23;6.00;;;3.70;;
11228;SDS011;5671;47.936;8.716;2023-07-09T04:59:51;4.50;;;3.83;;
11228;SDS011;5671;47.936;8.716;2023-07-09T05:02:17;4.57;;;3.80;;
11228;SDS011;5671;47.936;8.716;2023-07-09T05:04:44;4.23;;;3.77;;
11228;SDS011;5671;47.936;8.716;2023-07-09T05:07:12;5.00;;;3.40;;
11228;SDS011;5671;47.936;8.716;2023-07-09T05:09:39;4.67;;;3.37;;
11228;SDS011;5671;47.936;8.716;2023-07-09T05:12:07;4.17;;;3.10;;
11228;SDS011;5671;47.936;8.716;2023-07-09T05:14:34;5.27;;;3.10;;
11228;SDS011;5671;47.936;8.716;2023-07-09T05:17:01;4.23;;;3.47;;
11228;SDS011;5671;47.936;8.716;2023-07-09T05:19:29;4.30;;;3.43;;
11228;SDS011;5671;47.936;8.716;2023-07-09T05:21:56;5.07;;;3.40;;
11228;SDS011;5671;47.936;8.716;2023-07-09T05:24:24;4.63;;;3.50;;
11228;SDS011;5671;47.936;8.716;2023-07-09T05:26:51;4.10;;;3.13;;
11228;SDS011;5671;47.936;8.716;2023-07-09T05:29:18;3.50;;;3.20;;
11228;SDS011;5671;47.936;8.716;2023-07-09T05:31:44;4.60;;;3.87;;
11228;SDS011;5671;47.936;8.716;2023-07-09T05:34:11;3.80;;;3.33;;
11228;SDS011;5671;47.936;8.716;2023-07-09T05:36:38;6.50;;;3.93;;
11228;SDS011;5671;47.936;8.716;2023-07-09T05:39:05;5.87;;;3.90;;
11228;SDS011;5671;47.936;8.716;2023-07-09T05:41:33;4.03;;;3.60;;
11228;SDS011;5671;47.936;8.716;2023-07-09T05:44:00;4.73;;;3.70;;
11228;SDS011;5671;47.936;8.716;2023-07-09T05:46:27;4.40;;;4.00;;
11228;SDS011;5671;47.936;8.716;2023-07-09T05:48:54;5.07;;;3.63;;
11228;SDS011;5671;47.936;8.716;2023-07-09T05:51:21;6.30;;;4.13;;
11228;SDS011;5671;47.936;8.716;2023-07-09T05:53:49;4.77;;;4.20;;
11228;SDS011;5671;47.936;8.716;2023-07-09T05:56:16;5.57;;;4.07;;
11228;SDS011;5671;47.936;8.716;2023-07-09T05:58:44;6.47;;;4.43;;
11228;SDS011;5671;47.936;8.716;2023-07-09T06:01:11;5.37;;;4.27;;
11228;SDS011;5671;47.936;8.716;2023-07-09T06:03:37;5.23;;;4.00;;
11228;SDS011;5671;47.936;8.716;2023-07-09T06:06:04;5.77;;;4.40;;
11228;SDS011;5671;47.936;8.716;2023-07-09T06:08:34;5.70;;;3.87;;
11228;SDS011;5671;47.936;8.716;2023-07-09T06:11:02;5.57;;;4.20;;
11228;SDS011;5671;47.936;8.716;2023-07-09T06:13:30;5.00;;;4.37;;
11228;SDS011;5671;47.936;8.716;2023-07-09T06:15:58;5.97;;;4.30;;
11228;SDS011;5671;47.936;8.716;2023-07-09T06:18:26;4.70;;;4.20;;
11228;SDS011;5671;47.936;8.716;2023-07-09T06:20:56;5.93;;;4.60;;
11228;SDS011;5671;47.936;8.716;2023-07-09T06:23:24;5.30;;;4.27;;
11228;SDS011;5671;47.936;8.716;2023-07-09T06:25:51;5.80;;;4.33;;
11228;SDS011;5671;47.936;8.716;2023-07-09T06:28:20;4.97;;;4.07;;
11228;SDS011;5671;47.936;8.716;2023-07-09T06:30:48;5.03;;;4.30;;
11228;SDS011;5671;47.936;8.716;2023-07-09T06:33:17;5.30;;;4.10;;
11228;SDS011;5671;47.936;8.716;2023-07-09T06:35:48;5.97;;;4.77;;
11228;SDS011;5671;47.936;8.716;2023-07-09T06:38:17;5.93;;;4.27;;
11228;SDS011;5671;47.936;8.716;2023-07-09T06:40:44;7.80;;;3.80;;
11228;SDS011;5671;47.936;8.716;2023-07-09T06:43:11;6.17;;;3.73;;
11228;SDS011;5671;47.936;8.716;2023-07-09T06:45:38;4.77;;;3.83;;
11228;SDS011;5671;47.936;8.716;2023-07-09T06:48:13;5.20;;;3.70;;
11228;SDS011;5671;47.936;8.716;2023-07-09T06:50:42;5.33;;;3.90;;
11228;SDS011;5671;47.936;8.716;2023-07-09T06:53:09;5.33;;;4.00;;
11228;SDS011;5671;47.936;8.716;2023-07-09T06:55:35;5.17;;;4.20;;
11228;SDS011;5671;47.936;8.716;2023-07-09T06:58:02;5.50;;;3.93;;
11228;SDS011;5671;47.936;8.716;2023-07-09T07:00:29;5.07;;;4.27;;
11228;SDS011;5671;47.936;8.716;2023-07-09T07:02:56;5.63;;;3.80;;
11228;SDS011;5671;47.936;8.716;2023-07-09T07:05:23;4.33;;;3.37;;
11228;SDS011;5671;47.936;8.716;2023-07-09T07:07:51;4.43;;;3.83;;
11228;SDS011;5671;47.936;8.716;2023-07-09T07:10:18;6.00;;;4.10;;
11228;SDS011;5671;47.936;8.716;2023-07-09T07:12:46;5.03;;;4.20;;
11228;SDS011;5671;47.936;8.716;2023-07-09T07:15:15;4.27;;;3.87;;
11228;SDS011;5671;47.936;8.716;2023-07-09T07:17:43;4.73;;;3.97;;
11228;SDS011;5671;47.936;8.716;2023-07-09T07:20:11;5.93;;;4.30;;
11228;SDS011;5671;47.936;8.716;2023-07-09T07:22:39;6.20;;;3.80;;
11228;SDS011;5671;47.936;8.716;2023-07-09T07:25:08;7.70;;;3.87;;
11228;SDS011;5671;47.936;8.716;2023-07-09T07:27:35;5.97;;;4.17;;
11228;SDS011;5671;47.936;8.716;2023-07-09T07:30:03;9.60;;;4.43;;
11228;SDS011;5671;47.936;8.716;2023-07-09T07:32:33;7.77;;;4.77;;
11228;SDS011;5671;47.936;8.716;2023-07-09T07:35:01;5.30;;;3.80;;
11228;SDS011;5671;47.936;8.716;2023-07-09T07:37:28;6.77;;;4.23;;
11228;SDS011;5671;47.936;8.716;2023-07-09T07:39:55;8.87;;;4.20;;
11228;SDS011;5671;47.936;8.716;2023-07-09T07:42:23;6.23;;;4.27;;
11228;SDS011;5671;47.936;8.716;2023-07-09T07:44:52;4.03;;;3.60;;
11228;SDS011;5671;47.936;8.716;2023-07-09T07:47:19;4.63;;;3.57;;
11228;SDS011;5671;47.936;8.716;2023-07-09T07:49:46;6.53;;;4.03;;
11228;SDS011;5671;47.936;8.716;2023-07-09T07:52:12;5.47;;;3.67;;
11228;SDS011;5671;47.936;8.716;2023-07-09T07:54:39;4.93;;;3.73;;
11228;SDS011;5671;47.936;8.716;2023-07-09T07:57:07;4.43;;;3.70;;
11228;SDS011;5671;47.936;8.716;2023-07-09T07:59:35;4.80;;;3.97;;
11228;SDS011;5671;47.936;8.716;2023-07-09T08:02:02;6.03;;;3.70;;
11228;SDS011;5671;47.936;8.716;2023-07-09T08:04:30;6.90;;;4.10;;
11228;SDS011;5671;47.936;8.716;2023-07-09T08:07:01;5.93;;;4.07;;
11228;SDS011;5671;47.936;8.716;2023-07-09T08:09:29;4.80;;;3.73;;
11228;SDS011;5671;47.936;8.716;2023-07-09T08:11:56;5.50;;;4.23;;
11228;SDS011;5671;47.936;8.716;2023-07-09T08:14:22;4.73;;;3.50;;
11228;SDS011;5671;47.936;8.716;2023-07-09T08:16:51;4.50;;;3.80;;
11228;SDS011;5671;47.936;8.716;2023-07-09T08:19:18;6.07;;;4.07;;
11228;SDS011;5671;47.936;8.716;2023-07-09T08:21:45;6.77;;;3.97;;
11228;SDS011;5671;47.936;8.716;2023-07-09T08:24:12;5.37;;;3.47;;
11228;SDS011;5671;47.936;8.716;2023-07-09T08:26:40;7.13;;;3.73;;
11228;SDS011;5671;47.936;8.716;2023-07-09T08:29:07;5.70;;;3.30;;
11228;SDS011;5671;47.936;8.716;2023-07-09T08:31:34;4.70;;;3.43;;
11228;SDS011;5671;47.936;8.716;2023-07-09T08:34:05;3.90;;;3.50;;
11228;SDS011;5671;47.936;8.716;2023-07-09T08:36:34;4.37;;;3.50;;
11228;SDS011;5671;47.936;8.716;2023-07-09T08:39:01;4.60;;;3.40;;
11228;SDS011;5671;47.936;8.716;2023-07-09T08:41:37;6.20;;;3.50;;
11228;SDS011;5671;47.936;8.716;2023-07-09T08:44:14;4.60;;;3.33;;
11228;SDS011;5671;47.936;8.716;2023-07-09T08:46:54;3.97;;;3.20;;
11228;SDS011;5671;47.936;8.716;2023-07-09T08:49:33;4.33;;;3.20;;
11228;SDS011;5671;47.936;8.716;2023-07-09T08:52:04;3.80;;;3.10;;
11228;SDS011;5671;47.936;8.716;2023-07-09T08:54:38;4.90;;;3.30;;
11228;SDS011;5671;47.936;8.716;2023-07-09T08:57:09;6.20;;;3.53;;
11228;SDS011;5671;47.936;8.716;2023-07-09T08:59:45;4.73;;;3.17;;
11228;SDS011;5671;47.936;8.716;2023-07-09T09:02:15;5.50;;;3.57;;
11228;SDS011;5671;47.936;8.716;2023-07-09T09:04:51;5.20;;;3.50;;
11228;SDS011;5671;47.936;8.716;2023-07-09T09:07:19;5.83;;;3.03;;
11228;SDS011;5671;47.936;8.716;2023-07-09T09:09:58;4.50;;;3.30;;
11228;SDS011;5671;47.936;8.716;2023-07-09T09:12:29;3.93;;;3.13;;
11228;SDS011;5671;47.936;8.716;2023-07-09T09:15:01;6.07;;;3.50;;
11228;SDS011;5671;47.936;8.716;2023-07-09T09:17:30;5.50;;;3.40;;
11228;SDS011;5671;47.936;8.716;2023-07-09T09:20:03;5.50;;;3.40;;
11228;SDS011;5671;47.936;8.716;2023-07-09T09:22:36;3.40;;;2.97;;
11228;SDS011;5671;47.936;8.716;2023-07-09T09:25:11;4.63;;;3.40;;
11228;SDS011;5671;47.936;8.716;2023-07-09T09:27:48;5.83;;;3.30;;
11228;SDS011;5671;47.936;8.716;2023-07-09T09:30:16;5.27;;;3.23;;
11228;SDS011;5671;47.936;8.716;2023-07-09T09:32:50;4.93;;;3.00;;
11228;SDS011;5671;47.936;8.716;2023-07-09T09:35:27;6.30;;;3.07;;
11228;SDS011;5671;47.936;8.716;2023-07-09T09:37:55;3.17;;;2.77;;
11228;SDS011;5671;47.936;8.716;2023-07-09T09:40:24;5.23;;;3.13;;
11228;SDS011;5671;47.936;8.716;2023-07-09T09:42:54;6.80;;;2.83;;
11228;SDS011;5671;47.936;8.716;2023-07-09T09:45:25;3.63;;;2.80;;
11228;SDS011;5671;47.936;8.716;2023-07-09T09:47:58;3.10;;;2.80;;
11228;SDS011;5671;47.936;8.716;2023-07-09T09:50:27;4.53;;;3.10;;
11228;SDS011;5671;47.936;8.716;2023-07-09T09:52:58;6.80;;;2.93;;
11228;SDS011;5671;47.936;8.716;2023-07-09T09:55:27;3.47;;;2.90;;
11228;SDS011;5671;47.936;8.716;2023-07-09T09:57:55;5.00;;;3.03;;
11228;SDS011;5671;47.936;8.716;2023-07-09T10:00:25;4.97;;;2.90;;
11228;SDS011;5671;47.936;8.716;2023-07-09T10:02:57;4.43;;;2.70;;
11228;SDS011;5671;47.936;8.716;2023-07-09T10:05:29;5.20;;;3.30;;
11228;SDS011;5671;47.936;8.716;2023-07-09T10:08:04;5.40;;;2.77;;
11228;SDS011;5671;47.936;8.716;2023-07-09T10:10:34;4.47;;;3.10;;
11228;SDS011;5671;47.936;8.716;2023-07-09T10:13:05;2.70;;;2.50;;
11228;SDS011;5671;47.936;8.716;2023-07-09T10:15:41;4.07;;;2.97;;
11228;SDS011;5671;47.936;8.716;2023-07-09T10:18:17;3.33;;;2.67;;
11228;SDS011;5671;47.936;8.716;2023-07-09T10:21:00;4.50;;;2.77;;
11228;SDS011;5671;47.936;8.716;2023-07-09T10:23:32;5.73;;;2.90;;
11228;SDS011;5671;47.936;8.716;2023-07-09T10:26:09;4.43;;;3.37;;
11228;SDS011;5671;47.936;8.716;2023-07-09T10:28:49;3.83;;;3.07;;
11228;SDS011;5671;47.936;8.716;2023-07-09T10:31:27;5.13;;;3.33;;
11228;SDS011;5671;47.936;8.716;2023-07-09T10:34:01;4.70;;;3.13;;
11228;SDS011;5671;47.936;8.716;2023-07-09T10:36:39;3.80;;;3.10;;
11228;SDS011;5671;47.936;8.716;2023-07-09T10:39:22;3.30;;;3.00;;
11228;SDS011;5671;47.936;8.716;2023-07-09T10:41:54;6.27;;;3.07;;
11228;SDS011;5671;47.936;8.716;2023-07-09T10:44:27;4.20;;;3.40;;
11228;SDS011;5671;47.936;8.716;2023-07-09T10:46:59;6.33;;;3.10;;
11228;SDS011;5671;47.936;8.716;2023-07-09T10:49:30;5.90;;;2.87;;
11228;SDS011;5671;47.936;8.716;2023-07-09T10:52:04;3.20;;;2.90;;
11228;SDS011;5671;47.936;8.716;2023-07-09T10:54:34;6.43;;;3.20;;
11228;SDS011;5671;47.936;8.716;2023-07-09T10:57:05;4.67;;;3.13;;
11228;SDS011;5671;47.936;8.716;2023-07-09T10:59:37;4.53;;;3.30;;
11228;SDS011;5671;47.936;8.716;2023-07-09T11:02:13;5.30;;;3.47;;
11228;SDS011;5671;47.936;8.716;2023-07-09T11:04:45;4.67;;;2.93;;
11228;SDS011;5671;47.936;8.716;2023-07-09T11:07:18;4.30;;;2.83;;
11228;SDS011;5671;47.936;8.716;2023-07-09T11:09:49;3.67;;;3.10;;
11228;SDS011;5671;47.936;8.716;2023-07-09T11:12:23;3.40;;;2.87;;
11228;SDS011;5671;47.936;8.716;2023-07-09T11:14:56;4.57;;;3.07;;
11228;SDS011;5671;47.936;8.716;2023-07-09T11:17:27;4.13;;;3.10;;
11228;SDS011;5671;47.936;8.716;2023-07-09T11:19:59;6.70;;;3.27;;
11228;SDS011;5671;47.936;8.716;2023-07-09T11:22:37;4.67;;;2.87;;
11228;SDS011;5671;47.936;8.716;2023-07-09T11:25:06;5.57;;;3.57;;
11228;SDS011;5671;47.936;8.716;2023-07-09T11:27:44;4.80;;;3.20;;
11228;SDS011;5671;47.936;8.716;2023-07-09T11:30:19;3.87;;;2.93;;
11228;SDS011;5671;47.936;8.716;2023-07-09T11:32:52;3.53;;;3.10;;
11228;SDS011;5671;47.936;8.716;2023-07-09T11:35:22;5.87;;;2.90;;
11228;SDS011;5671;47.936;8.716;2023-07-09T11:37:51;8.73;;;3.33;;
11228;SDS011;5671;47.936;8.716;2023-07-09T11:40:19;3.70;;;2.70;;
11228;SDS011;5671;47.936;8.716;2023-07-09T11:42:48;4.23;;;3.00;;
11228;SDS011;5671;47.936;8.716;2023-07-09T11:45:19;3.97;;;2.83;;
11228;SDS011;5671;47.936;8.716;2023-07-09T11:47:51;4.17;;;3.10;;
11228;SDS011;5671;47.936;8.716;2023-07-09T11:50:26;5.30;;;3.30;;
11228;SDS011;5671;47.936;8.716;2023-07-09T11:52:56;5.10;;;3.53;;
11228;SDS011;5671;47.936;8.716;2023-07-09T11:55:26;4.70;;;2.70;;
11228;SDS011;5671;47.936;8.716;2023-07-09T11:57:54;4.43;;;2.90;;
11228;SDS011;5671;47.936;8.716;2023-07-09T12:00:22;4.03;;;3.10;;
11228;SDS011;5671;47.936;8.716;2023-07-09T12:02:53;4.30;;;2.90;;
11228;SDS011;5671;47.936;8.716;2023-07-09T12:05:21;7.10;;;3.07;;
11228;SDS011;5671;47.936;8.716;2023-07-09T12:07:52;5.67;;;3.10;;
11228;SDS011;5671;47.936;8.716;2023-07-09T12:10:21;3.60;;;3.17;;
11228;SDS011;5671;47.936;8.716;2023-07-09T12:12:53;3.23;;;2.90;;
11228;SDS011;5671;47.936;8.716;2023-07-09T12:15:22;6.27;;;3.30;;
11228;SDS011;5671;47.936;8.716;2023-07-09T12:17:54;3.53;;;2.77;;
11228;SDS011;5671;47.936;8.716;2023-07-09T12:20:23;6.57;;;3.10;;
11228;SDS011;5671;47.936;8.716;2023-07-09T12:22:50;4.87;;;3.00;;
11228;SDS011;5671;47.936;8.716;2023-07-09T12:25:18;3.73;;;2.97;;
11228;SDS011;5671;47.936;8.716;2023-07-09T12:27:48;7.77;;;3.20;;
11228;SDS011;5671;47.936;8.716;2023-07-09T12:30:15;6.00;;;3.20;;
11228;SDS011;5671;47.936;8.716;2023-07-09T12:32:43;4.10;;;3.37;;
11228;SDS011;5671;47.936;8.716;2023-07-09T12:35:12;6.10;;;3.20;;
11228;SDS011;5671;47.936;8.716;2023-07-09T12:37:46;6.30;;;3.50;;
11228;SDS011;5671;47.936;8.716;2023-07-09T12:40:15;5.70;;;3.53;;
11228;SDS011;5671;47.936;8.716;2023-07-09T12:42:46;6.27;;;3.00;;
11228;SDS011;5671;47.936;8.716;2023-07-09T12:45:15;7.23;;;3.40;;
11228;SDS011;5671;47.936;8.716;2023-07-09T12:47:44;5.80;;;2.83;;
11228;SDS011;5671;47.936;8.716;2023-07-09T12:53:03;4.53;;;2.67;;
11228;SDS011;5671;47.936;8.716;2023-07-09T12:55:40;5.27;;;3.10;;
11228;SDS011;5671;47.936;8.716;2023-07-09T12:58:10;5.27;;;3.30;;
11228;SDS011;5671;47.936;8.716;2023-07-09T13:00:41;4.00;;;3.07;;
11228;SDS011;5671;47.936;8.716;2023-07-09T13:03:16;4.50;;;2.77;;
11228;SDS011;5671;47.936;8.716;2023-07-09T13:05:53;5.53;;;2.80;;
11228;SDS011;5671;47.936;8.716;2023-07-09T13:08:24;9.43;;;3.03;;
11228;SDS011;5671;47.936;8.716;2023-07-09T13:10:51;4.97;;;2.90;;
11228;SDS011;5671;47.936;8.716;2023-07-09T13:13:21;4.87;;;3.00;;
11228;SDS011;5671;47.936;8.716;2023-07-09T13:15:51;4.73;;;2.80;;
11228;SDS011;5671;47.936;8.716;2023-07-09T13:18:22;4.37;;;2.80;;
11228;SDS011;5671;47.936;8.716;2023-07-09T13:20:50;8.47;;;3.10;;
11228;SDS011;5671;47.936;8.716;2023-07-09T13:23:18;5.23;;;2.93;;
11228;SDS011;5671;47.936;8.716;2023-07-09T13:25:46;4.83;;;2.80;;
11228;SDS011;5671;47.936;8.716;2023-07-09T13:28:16;5.97;;;2.83;;
11228;SDS011;5671;47.936;8.716;2023-07-09T13:30:45;5.13;;;3.20;;
11228;SDS011;5671;47.936;8.716;2023-07-09T13:33:13;3.77;;;2.90;;
11228;SDS011;5671;47.936;8.716;2023-07-09T13:35:40;5.70;;;3.00;;
11228;SDS011;5671;47.936;8.716;2023-07-09T13:38:13;6.20;;;2.80;;
11228;SDS011;5671;47.936;8.716;2023-07-09T13:40:42;5.30;;;2.80;;
11228;SDS011;5671;47.936;8.716;2023-07-09T13:43:13;7.80;;;3.40;;
11228;SDS011;5671;47.936;8.716;2023-07-09T13:45:42;5.10;;;2.70;;
11228;SDS011;5671;47.936;8.716;2023-07-09T13:48:14;8.50;;;3.23;;
11228;SDS011;5671;47.936;8.716;2023-07-09T13:50:42;6.20;;;3.20;;
11228;SDS011;5671;47.936;8.716;2023-07-09T13:53:15;4.47;;;3.10;;
11228;SDS011;5671;47.936;8.716;2023-07-09T13:55:45;5.37;;;3.07;;
11228;SDS011;5671;47.936;8.716;2023-07-09T13:58:15;6.87;;;2.87;;
11228;SDS011;5671;47.936;8.716;2023-07-09T14:00:50;4.23;;;2.80;;
11228;SDS011;5671;47.936;8.716;2023-07-09T14:03:31;5.13;;;3.10;;
11228;SDS011;5671;47.936;8.716;2023-07-09T14:05:59;4.80;;;3.00;;
11228;SDS011;5671;47.936;8.716;2023-07-09T14:08:26;8.33;;;3.30;;
11228;SDS011;5671;47.936;8.716;2023-07-09T14:10:52;3.70;;;3.00;;
11228;SDS011;5671;47.936;8.716;2023-07-09T14:13:21;3.77;;;2.83;;
11228;SDS011;5671;47.936;8.716;2023-07-09T14:15:49;4.03;;;2.90;;
11228;SDS011;5671;47.936;8.716;2023-07-09T14:18:17;5.73;;;3.37;;
11228;SDS011;5671;47.936;8.716;2023-07-09T14:20:46;4.30;;;3.40;;
11228;SDS011;5671;47.936;8.716;2023-07-09T14:23:14;7.37;;;2.93;;
11228;SDS011;5671;47.936;8.716;2023-07-09T14:25:42;4.47;;;3.20;;
11228;SDS011;5671;47.936;8.716;2023-07-09T14:28:10;5.40;;;2.83;;
11228;SDS011;5671;47.936;8.716;2023-07-09T14:30:38;4.97;;;2.90;;
11228;SDS011;5671;47.936;8.716;2023-07-09T14:33:08;5.73;;;3.00;;
11228;SDS011;5671;47.936;8.716;2023-07-09T14:35:38;3.83;;;3.00;;
11228;SDS011;5671;47.936;8.716;2023-07-09T14:38:09;6.20;;;3.00;;
11228;SDS011;5671;47.936;8.716;2023-07-09T14:40:43;10.53;;;3.30;;
11228;SDS011;5671;47.936;8.716;2023-07-09T14:43:10;5.63;;;3.10;;
11228;SDS011;5671;47.936;8.716;2023-07-09T14:45:37;6.67;;;3.13;;
11228;SDS011;5671;47.936;8.716;2023-07-09T14:48:08;4.67;;;3.27;;
11228;SDS011;5671;47.936;8.716;2023-07-09T14:50:36;3.53;;;2.75;;
11228;SDS011;5671;47.936;8.716;2023-07-09T14:53:03;3.33;;;2.50;;
11228;SDS011;5671;47.936;8.716;2023-07-09T14:55:37;6.03;;;2.90;;
11228;SDS011;5671;47.936;8.716;2023-07-09T15:00:39;4.67;;;3.17;;
11228;SDS011;5671;47.936;8.716;2023-07-09T15:03:09;4.30;;;2.83;;
11228;SDS011;5671;47.936;8.716;2023-07-09T15:05:37;6.55;;;3.30;;
11228;SDS011;5671;47.936;8.716;2023-07-09T15:08:11;4.47;;;3.30;;
11228;SDS011;5671;47.936;8.716;2023-07-09T15:10:39;5.50;;;3.03;;
11228;SDS011;5671;47.936;8.716;2023-07-09T15:13:09;5.37;;;2.87;;
11228;SDS011;5671;47.936;8.716;2023-07-09T15:15:42;7.37;;;3.10;;
11228;SDS011;5671;47.936;8.716;2023-07-09T15:18:10;5.75;;;2.80;;